Time;durP1;ratioP1;P1;durP2;ratioP2;P2;SDS_P1;SDS_P2;PMS_P1;PMS_P2;Temp;Humidity;BMP_temperature;BMP_pressure;BME280_temperature;BME280_humidity;BME280_pressure;Samples;Min_cycle;Max_cycle;Signal;HPM_P1;HPM_P2
2022/08/09 00:01:54;;;;;;;;;;;;;;;;;;4966635;28;19925;-42
2022/08/09 00:04:20;;;;;;;;;;;;;;;;;;4968564;28;20072;-43
2022/08/09 00:06:46;;;;;;;;;;;;;;;;;;4986220;28;19910;-43
2022/08/09 00:09:14;;;;;;;;;;;;;;;;;;4985885;28;19910;-42
2022/08/09 00:11:41;;;;;;;;;;;;;;;;;;4986420;28;19913;-42
2022/08/09 00:14:07;;;;;;;;;;;;;;;;;;4985909;28;20401;-42
2022/08/09 00:16:32;;;;;;;;;;;;;;;;;;4985604;28;19914;-42
2022/08/09 00:18:59;;;;;;;;;;;;;;;;;;4986482;28;19917;-42
2022/08/09 00:21:26;;;;;;;;;;;;;;;;;;4985809;28;19914;-42
2022/08/09 00:23:52;;;;;;;;;;;;;;;;;;4985765;28;19964;-42
2022/08/09 00:26:19;;;;;;;;;;;;;;;;;;4985752;28;19953;-42
2022/08/09 00:28:45;;;;;;;;;;;;;;;;;;4985984;28;19913;-43
2022/08/09 00:31:12;;;;;;;;;;;;;;;;;;4985316;28;20431;-42
2022/08/09 00:33:38;;;;;;;;;;;;;;;;;;4986646;28;19909;-42
2022/08/09 00:36:04;;;;;;;;;;;;;;;;;;4985637;28;20000;-42
2022/08/09 00:38:30;;;;;;;;;;;;;;;;;;4985614;28;20008;-42
2022/08/09 00:40:56;;;;;;;;;;;;;;;;;;4986005;28;20345;-43
2022/08/09 00:43:21;;;;;;;;;;;;;;;;;;4985441;28;19914;-42
2022/08/09 00:45:47;;;;;;;;;;;;;;;;;;4985602;28;19973;-42
2022/08/09 00:48:13;;;;;;;;;;;;;;;;;;4985498;28;19910;-42
2022/08/09 00:50:39;;;;;;;;;;;;;;;;;;4986129;28;19914;-42
2022/08/09 00:53:05;;;;;;;;;;;;;;;;;;4986324;28;19914;-43
2022/08/09 00:55:31;;;;;;;;;;;;;;;;;;4985558;28;20291;-42
2022/08/09 00:57:57;;;;;;;;;;;;;;;;;;4986060;28;19944;-42
2022/08/09 01:00:24;;;;;;;;;;;;;;;;;;4985583;28;20028;-43
2022/08/09 01:02:50;;;;;;;;;;;;;;;;;;4985692;28;19926;-42
2022/08/09 01:05:17;;;;;;;;;;;;;;;;;;4985073;28;20310;-42
2022/08/09 01:07:45;;;;;;;;;;;;;;;;;;4985463;28;19922;-42
2022/08/09 01:10:11;;;;;;;;;;;;;;;;;;4985498;28;19945;-42
2022/08/09 01:12:36;;;;;;;;;;;;;;;;;;4985902;28;20402;-42
2022/08/09 01:15:02;;;;;;;;;;;;;;;;;;4985310;28;19917;-42
2022/08/09 01:17:28;;;;;;;;;;;;;;;;;;4985246;28;20048;-42
2022/08/09 01:19:54;;;;;;;;;;;;;;;;;;4985600;28;19956;-42
2022/08/09 01:22:20;;;;;;;;;;;;;;;;;;4985535;28;19913;-42
2022/08/09 01:24:46;;;;;;;;;;;;;;;;;;4985333;28;19916;-43
2022/08/09 01:27:12;;;;;;;;;;;;;;;;;;4987772;28;20395;-42
2022/08/09 01:29:38;;;;;;;;;;;;;;;;;;4989375;28;19910;-42
2022/08/09 01:32:04;;;;;;;;;;;;;;;;;;4988927;28;19910;-42
2022/08/09 01:34:29;;;;;;;;;;;;;;;;;;4988614;28;20116;-42
2022/08/09 01:36:56;;;;;;;;;;;;;;;;;;4988792;28;19914;-43
2022/08/09 01:39:21;;;;;;;;;;;;;;;;;;4988557;28;20383;-42
2022/08/09 01:41:48;;;;;;;;;;;;;;;;;;4988696;28;19996;-42
2022/08/09 01:44:14;;;;;;;;;;;;;;;;;;4988210;28;20382;-42
2022/08/09 01:46:40;;;;;;;;;;;;;;;;;;4988818;28;19920;-42
2022/08/09 01:49:06;;;;;;;;;;;;;;;;;;4989035;28;19910;-43
2022/08/09 01:51:32;;;;;;;;;;;;;;;;;;4988220;28;19914;-42
2022/08/09 01:53:58;;;;;;;;;;;;;;;;;;4988438;28;19914;-42
2022/08/09 01:56:25;;;;;;;;;;;;;;;;;;4988117;28;20366;-42
2022/08/09 01:58:52;;;;;;;;;;;;;;;;;;4988520;28;20291;-42
2022/08/09 02:01:18;;;;;;;;;;;;;;;;;;4988145;28;19913;-42
2022/08/09 02:03:44;;;;;;;;;;;;;;;;;;4987714;28;19921;-42
2022/08/09 02:06:10;;;;;;;;;;;;;;;;;;4988451;28;20378;-42
2022/08/09 02:08:35;;;;;;;;;;;;;;;;;;4988735;28;19961;-42
2022/08/09 02:11:02;;;;;;;;;;;;;;;;;;4988171;28;19910;-41
2022/08/09 02:13:28;;;;;;;;;;;;;;;;;;4987693;28;19932;-42
2022/08/09 02:15:54;;;;;;;;;;;;;;;;;;4988169;28;20382;-42
2022/08/09 02:18:21;;;;;;;;;;;;;;;;;;4987638;28;19968;-41
2022/08/09 02:20:48;;;;;;;;;;;;;;;;;;4988285;28;19910;-43
2022/08/09 02:23:14;;;;;;;;;;;;;;;;;;4987491;28;19922;-41
2022/08/09 02:25:40;;;;;;;;;;;;;;;;;;4988142;28;19910;-42
2022/08/09 02:28:07;;;;;;;;;;;;;;;;;;4988570;28;19962;-42
2022/08/09 02:30:32;;;;;;;;;;;;;;;;;;4987581;28;19921;-42
2022/08/09 02:32:58;;;;;;;;;;;;;;;;;;4987593;28;19910;-41
2022/08/09 02:35:24;;;;;;;;;;;;;;;;;;4987417;28;20057;-43
2022/08/09 02:37:50;;;;;;;;;;;;;;;;;;4987328;28;19913;-42
2022/08/09 02:40:16;;;;;;;;;;;;;;;;;;4987320;28;19921;-42
2022/08/09 02:42:42;;;;;;;;;;;;;;;;;;4987438;28;20295;-42
2022/08/09 02:45:09;;;;;;;;;;;;;;;;;;4988279;28;19920;-42
2022/08/09 02:47:35;;;;;;;;;;;;;;;;;;4987930;28;19913;-42
2022/08/09 02:50:01;;;;;;;;;;;;;;;;;;4987258;28;20424;-42
2022/08/09 02:52:27;;;;;;;;;;;;;;;;;;4987208;28;19910;-43
2022/08/09 02:54:53;;;;;;;;;;;;;;;;;;4987206;28;20354;-42
2022/08/09 02:57:20;;;;;;;;;;;;;;;;;;4987281;28;19909;-42
2022/08/09 02:59:46;;;;;;;;;;;;;;;;;;4986973;28;20584;-43
2022/08/09 03:02:13;;;;;;;;;;;;;;;;;;4986724;28;19945;-43
2022/08/09 03:04:39;;;;;;;;;;;;;;;;;;4987418;28;19918;-41
2022/08/09 03:07:06;;;;;;;;;;;;;;;;;;4987855;28;19940;-43
2022/08/09 03:09:32;;;;;;;;;;;;;;;;;;4986552;28;19968;-42
2022/08/09 03:11:58;;;;;;;;;;;;;;;;;;4986934;28;19914;-41
2022/08/09 03:14:24;;;;;;;;;;;;;;;;;;4986571;28;20389;-42
2022/08/09 03:16:50;;;;;;;;;;;;;;;;;;4986912;28;19909;-41
2022/08/09 03:19:16;;;;;;;;;;;;;;;;;;4986458;28;20538;-43
2022/08/09 03:21:42;;;;;;;;;;;;;;;;;;4986881;28;19910;-41
2022/08/09 03:24:08;;;;;;;;;;;;;;;;;;4987003;28;19924;-44
2022/08/09 03:26:34;;;;;;;;;;;;;;;;;;4986498;28;20000;-42
2022/08/09 03:29:00;;;;;;;;;;;;;;;;;;4986696;28;20303;-44
2022/08/09 03:31:26;;;;;;;;;;;;;;;;;;4986388;28;20018;-41
2022/08/09 03:33:51;;;;;;;;;;;;;;;;;;4986486;28;20395;-41
2022/08/09 03:36:17;;;;;;;;;;;;;;;;;;4984940;28;20444;-42
2022/08/09 03:38:44;;;;;;;;;;;;;;;;;;4986425;28;20371;-41
2022/08/09 03:41:10;;;;;;;;;;;;;;;;;;4986144;28;19917;-42
2022/08/09 03:43:36;;;;;;;;;;;;;;;;;;4986893;28;19925;-42
2022/08/09 03:46:02;;;;;;;;;;;;;;;;;;4986489;28;19913;-42
2022/08/09 03:48:28;;;;;;;;;;;;;;;;;;4985263;28;19914;-41
2022/08/09 03:50:54;;;;;;;;;;;;;;;;;;4986195;28;19910;-42
2022/08/09 03:53:20;;;;;;;;;;;;;;;;;;4985766;28;19976;-41
2022/08/09 03:55:46;;;;;;;;;;;;;;;;;;4986244;28;19914;-41
2022/08/09 03:58:11;;;;;;;;;;;;;;;;;;4986129;28;19914;-42
2022/08/09 04:00:38;;;;;;;;;;;;;;;;;;4986733;28;20034;-43
2022/08/09 04:03:04;;;;;;;;;;;;;;;;;;4985734;28;19917;-42
2022/08/09 04:05:30;;;;;;;;;;;;;;;;;;4985732;28;20454;-41
2022/08/09 04:07:56;;;;;;;;;;;;;;;;;;4986463;28;19961;-42
2022/08/09 04:10:22;;;;;;;;;;;;;;;;;;4985839;28;20434;-42
2022/08/09 04:12:48;;;;;;;;;;;;;;;;;;4986150;28;20375;-41
2022/08/09 04:15:14;;;;;;;;;;;;;;;;;;4985745;28;19956;-41
2022/08/09 04:17:40;;;;;;;;;;;;;;;;;;4985814;28;19910;-41
2022/08/09 04:20:06;;;;;;;;;;;;;;;;;;4986474;28;20345;-43
2022/08/09 04:22:32;;;;;;;;;;;;;;;;;;4985554;28;19924;-43
2022/08/09 04:24:58;;;;;;;;;;;;;;;;;;4985788;28;19910;-42
2022/08/09 04:27:23;;;;;;;;;;;;;;;;;;4985700;28;20421;-41
2022/08/09 04:29:50;;;;;;;;;;;;;;;;;;4985731;28;20108;-41
2022/08/09 04:32:16;;;;;;;;;;;;;;;;;;4985301;28;19913;-41
2022/08/09 04:34:42;;;;;;;;;;;;;;;;;;4986238;28;19925;-42
2022/08/09 04:37:08;;;;;;;;;;;;;;;;;;4986214;28;19910;-41
2022/08/09 04:39:35;;;;;;;;;;;;;;;;;;4985699;28;19917;-42
2022/08/09 04:42:02;;;;;;;;;;;;;;;;;;4985800;28;19918;-42
2022/08/09 04:44:29;;;;;;;;;;;;;;;;;;4985163;28;20444;-41
2022/08/09 04:46:55;;;;;;;;;;;;;;;;;;4985708;28;19909;-41
2022/08/09 04:49:21;;;;;;;;;;;;;;;;;;4985244;28;20395;-42
2022/08/09 04:51:47;;;;;;;;;;;;;;;;;;4985527;28;20004;-42
2022/08/09 04:54:13;;;;;;;;;;;;;;;;;;4985378;28;19937;-42
2022/08/09 04:56:39;;;;;;;;;;;;;;;;;;4986305;28;19910;-41
2022/08/09 04:59:05;;;;;;;;;;;;;;;;;;4985870;28;19937;-41
2022/08/09 05:01:31;;;;;;;;;;;;;;;;;;4987954;28;20207;-42
2022/08/09 05:03:57;;;;;;;;;;;;;;;;;;4989063;28;19922;-41
2022/08/09 05:06:23;;;;;;;;;;;;;;;;;;4988878;28;19910;-42
2022/08/09 05:08:50;;;;;;;;;;;;;;;;;;4989428;28;19964;-42
2022/08/09 05:11:16;;;;;;;;;;;;;;;;;;4988874;28;19914;-41
2022/08/09 05:13:42;;;;;;;;;;;;;;;;;;4989206;28;20287;-41
2022/08/09 05:16:08;;;;;;;;;;;;;;;;;;4989652;28;19910;-41
2022/08/09 05:18:34;;;;;;;;;;;;;;;;;;4989232;28;20428;-42
2022/08/09 05:21:00;;;;;;;;;;;;;;;;;;4988875;28;19968;-42
2022/08/09 05:23:25;;;;;;;;;;;;;;;;;;4988480;28;19917;-41
2022/08/09 05:25:52;;;;;;;;;;;;;;;;;;4988977;28;19941;-41
2022/08/09 05:28:19;;;;;;;;;;;;;;;;;;4988908;28;19910;-41
2022/08/09 05:30:45;;;;;;;;;;;;;;;;;;4988862;28;19983;-43
2022/08/09 05:33:11;;;;;;;;;;;;;;;;;;4988202;28;19914;-47
2022/08/09 05:35:37;;;;;;;;;;;;;;;;;;4989591;28;20488;-45
2022/08/09 05:38:03;;;;;;;;;;;;;;;;;;4977270;28;19960;-44
2022/08/09 05:40:29;;;;;;;;;;;;;;;;;;4969664;28;19910;-44
2022/08/09 05:42:55;;;;;;;;;;;;;;;;;;4970412;28;19922;-42
2022/08/09 05:45:21;;;;;;;;;;;;;;;;;;4970273;28;19910;-42
2022/08/09 05:47:47;;;;;;;;;;;;;;;;;;4970385;28;20375;-42
2022/08/09 05:50:14;;;;;;;;;;;;;;;;;;4953857;28;19968;-42
2022/08/09 05:52:40;;;;;;;;;;;;;;;;;;4950046;29;19910;-42
2022/08/09 05:55:06;;;;;;;;;;;;;;;;;;4950781;28;20203;-43
2022/08/09 05:57:32;;;;;;;;;;;;;;;;;;4969665;28;20285;-42
2022/08/09 05:59:58;;;;;;;;;;;;;;;;;;4969550;28;20000;-42
2022/08/09 06:02:24;;;;;;;;;;;;;;;;;;4969928;28;20394;-43
2022/08/09 06:04:50;;;;;;;;;;;;;;;;;;4970079;28;19941;-43
2022/08/09 06:07:16;;;;;;;;;;;;;;;;;;4969983;28;19921;-44
2022/08/09 06:09:42;;;;;;;;;;;;;;;;;;4970312;28;19964;-43
2022/08/09 06:12:08;;;;;;;;;;;;;;;;;;4969782;28;19933;-43
2022/08/09 06:14:34;;;;;;;;;;;;;;;;;;4968462;28;19910;-44
2022/08/09 06:17:00;;;;;;;;;;;;;;;;;;4969662;28;19962;-43
2022/08/09 06:19:26;;;;;;;;;;;;;;;;;;4969482;28;19926;-44
2022/08/09 06:21:52;;;;;;;;;;;;;;;;;;4970140;28;19914;-45
2022/08/09 06:24:18;;;;;;;;;;;;;;;;;;4968255;28;19929;-43
2022/08/09 06:26:44;;;;;;;;;;;;;;;;;;4965518;28;19914;-45
2022/08/09 06:29:10;;;;;;;;;;;;;;;;;;4968434;28;20399;-43
2022/08/09 06:31:35;;;;;;;;;;;;;;;;;;4970129;28;19989;-44
2022/08/09 06:34:01;;;;;;;;;;;;;;;;;;4969101;28;20057;-43
2022/08/09 06:36:27;;;;;;;;;;;;;;;;;;4969463;28;19946;-43
2022/08/09 06:38:54;;;;;;;;;;;;;;;;;;4968226;28;19921;-44
2022/08/09 06:41:20;;;;;;;;;;;;;;;;;;4963698;28;19915;-44
2022/08/09 06:43:46;;;;;;;;;;;;;;;;;;4950382;28;19922;-45
2022/08/09 06:46:12;;;;;;;;;;;;;;;;;;4961035;28;20040;-43
2022/08/09 06:48:40;;;;;;;;;;;;;;;;;;4969747;28;19984;-44
2022/08/09 06:51:05;;;;;;;;;;;;;;;;;;4969698;28;19961;-43
2022/08/09 06:53:31;;;;;;;;;;;;;;;;;;4968619;28;19918;-43
2022/08/09 06:55:59;;;;;;;;;;;;;;;;;;4969022;28;19918;-44
2022/08/09 06:58:25;;;;;;;;;;;;;;;;;;4969087;28;19917;-45
2022/08/09 07:00:51;;;;;;;;;;;;;;;;;;4968919;28;19914;-44
2022/08/09 07:03:16;;;;;;;;;;;;;;;;;;4968741;28;19948;-44
2022/08/09 07:05:42;;;;;;;;;;;;;;;;;;4969270;28;20013;-44
2022/08/09 07:08:08;;;;;;;;;;;;;;;;;;4968691;28;20404;-44
2022/08/09 07:10:34;;;;;;;;;;;;;;;;;;4967072;28;19910;-44
2022/08/09 07:13:00;;;;;;;;;;;;;;;;;;4968823;28;19941;-43
2022/08/09 07:15:26;;;;;;;;;;;;;;;;;;4957018;28;20384;-44
2022/08/09 07:17:52;;;;;;;;;;;;;;;;;;4949712;29;19943;-43
2022/08/09 07:20:18;;;;;;;;;;;;;;;;;;4947637;28;19929;-43
2022/08/09 07:22:45;;;;;;;;;;;;;;;;;;4946648;28;19986;-45
2022/08/09 07:25:11;;;;;;;;;;;;;;;;;;4946019;28;19926;-43
2022/08/09 07:27:37;;;;;;;;;;;;;;;;;;4956932;28;19926;-42
2022/08/09 07:30:03;;;;;;;;;;;;;;;;;;4946925;28;19932;-43
2022/08/09 07:32:30;;;;;;;;;;;;;;;;;;4944502;28;19922;-43
2022/08/09 07:34:56;;;;;;;;;;;;;;;;;;4945271;28;19925;-46
2022/08/09 07:37:22;;;;;;;;;;;;;;;;;;4946074;28;19922;-44
2022/08/09 07:39:48;;;;;;;;;;;;;;;;;;4950596;28;19925;-44
2022/08/09 07:42:14;;;;;;;;;;;;;;;;;;4961983;28;19918;-44
2022/08/09 07:44:40;;;;;;;;;;;;;;;;;;4965779;28;19925;-43
2022/08/09 07:47:06;;;;;;;;;;;;;;;;;;4966949;28;19918;-42
2022/08/09 07:49:32;;;;;;;;;;;;;;;;;;4965337;28;19922;-43
2022/08/09 07:51:58;;;;;;;;;;;;;;;;;;4966123;28;19918;-44
2022/08/09 07:54:27;;;;;;;;;;;;;;;;;;4964809;28;20017;-43
2022/08/09 07:56:52;;;;;;;;;;;;;;;;;;4966942;28;19918;-43
2022/08/09 07:59:19;;;;;;;;;;;;;;;;;;4963541;28;19925;-45
2022/08/09 08:01:45;;;;;;;;;;;;;;;;;;4965526;28;20426;-44
2022/08/09 08:04:11;;;;;;;;;;;;;;;;;;4964117;28;19918;-44
2022/08/09 08:06:37;;;;;;;;;;;;;;;;;;4964663;28;20004;-46
2022/08/09 08:09:03;;;;;;;;;;;;;;;;;;4964419;28;19918;-43
2022/08/09 08:11:29;;;;;;;;;;;;;;;;;;4964108;28;19914;-44
2022/08/09 08:13:55;;;;;;;;;;;;;;;;;;4965814;28;19918;-44
2022/08/09 08:16:22;;;;;;;;;;;;;;;;;;4964341;28;20012;-43
2022/08/09 08:18:48;;;;;;;;;;;;;;;;;;4966006;28;19918;-43
2022/08/09 08:21:15;;;;;;;;;;;;;;;;;;4965427;28;19921;-44
2022/08/09 08:23:41;;;;;;;;;;;;;;;;;;4964382;28;19918;-44
2022/08/09 08:26:07;;;;;;;;;;;;;;;;;;4966425;28;19968;-43
2022/08/09 08:28:33;;;;;;;;;;;;;;;;;;4964369;28;19942;-44
2022/08/09 08:30:59;;;;;;;;;;;;;;;;;;4965062;28;19914;-43
2022/08/09 08:33:26;;;;;;;;;;;;;;;;;;4964503;28;20770;-44
2022/08/09 08:35:52;;;;;;;;;;;;;;;;;;4965727;28;19918;-44
2022/08/09 08:38:18;;;;;;;;;;;;;;;;;;4967967;28;20696;-44
2022/08/09 08:40:44;;;;;;;;;;;;;;;;;;4970345;28;19914;-43
2022/08/09 08:43:10;;;;;;;;;;;;;;;;;;4969011;28;19918;-43
2022/08/09 08:45:36;;;;;;;;;;;;;;;;;;4969757;28;19969;-43
2022/08/09 08:48:02;;;;;;;;;;;;;;;;;;4968301;28;20307;-47
2022/08/09 08:50:28;;;;;;;;;;;;;;;;;;4968535;28;19914;-44
2022/08/09 08:52:54;;;;;;;;;;;;;;;;;;4970244;28;20358;-47
2022/08/09 08:55:20;;;;;;;;;;;;;;;;;;4968259;28;19930;-45
2022/08/09 08:57:48;;;;;;;;;;;;;;;;;;4965189;28;19961;-43
2022/08/09 09:00:14;;;;;;;;;;;;;;;;;;4970902;28;19941;-45
2022/08/09 09:02:40;;;;;;;;;;;;;;;;;;4989926;28;19964;-44
2022/08/09 09:05:06;;;;;;;;;;;;;;;;;;4977476;28;19910;-43
2022/08/09 09:07:31;;;;;;;;;;;;;;;;;;4967873;28;19969;-43
2022/08/09 09:09:57;;;;;;;;;;;;;;;;;;4971310;28;19914;-43
2022/08/09 09:12:25;;;;;;;;;;;;;;;;;;4970730;28;19910;-43
2022/08/09 09:14:51;;;;;;;;;;;;;;;;;;4970789;28;19911;-44
2022/08/09 09:17:18;;;;;;;;;;;;;;;;;;4970789;28;19949;-47
2022/08/09 09:19:44;;;;;;;;;;;;;;;;;;4969851;28;19930;-44
2022/08/09 09:22:10;;;;;;;;;;;;;;;;;;4967648;28;19914;-43
2022/08/09 09:24:36;;;;;;;;;;;;;;;;;;4969019;28;19926;-44
2022/08/09 09:27:02;;;;;;;;;;;;;;;;;;4970730;28;19914;-44
2022/08/09 09:29:28;;;;;;;;;;;;;;;;;;4970170;28;19946;-47
2022/08/09 09:31:54;;;;;;;;;;;;;;;;;;4971030;28;20436;-44
2022/08/09 09:34:20;;;;;;;;;;;;;;;;;;4970671;28;19953;-44
2022/08/09 09:36:46;;;;;;;;;;;;;;;;;;4969363;28;19922;-47
2022/08/09 09:39:12;;;;;;;;;;;;;;;;;;4969818;28;19918;-45
2022/08/09 09:41:38;;;;;;;;;;;;;;;;;;4971244;28;19910;-45
2022/08/09 09:44:04;;;;;;;;;;;;;;;;;;4970481;28;19918;-46
2022/08/09 09:46:30;;;;;;;;;;;;;;;;;;4968457;28;19925;-43
2022/08/09 09:48:56;;;;;;;;;;;;;;;;;;4970584;28;19996;-46
2022/08/09 09:51:22;;;;;;;;;;;;;;;;;;4969503;28;19922;-44
2022/08/09 09:53:48;;;;;;;;;;;;;;;;;;4969836;28;19910;-43
2022/08/09 09:56:14;;;;;;;;;;;;;;;;;;4967993;28;19925;-44
2022/08/09 09:58:40;;;;;;;;;;;;;;;;;;4967431;28;19914;-44
2022/08/09 10:01:06;;;;;;;;;;;;;;;;;;4971053;28;19968;-43
2022/08/09 10:03:32;;;;;;;;;;;;;;;;;;4969905;28;19918;-44
2022/08/09 10:05:58;;;;;;;;;;;;;;;;;;4968499;28;19918;-42
2022/08/09 10:08:24;;;;;;;;;;;;;;;;;;4968742;28;19914;-43
2022/08/09 10:10:50;;;;;;;;;;;;;;;;;;4968353;28;19972;-43
2022/08/09 10:13:16;;;;;;;;;;;;;;;;;;4969155;28;19945;-42
2022/08/09 10:15:42;;;;;;;;;;;;;;;;;;4969248;28;19925;-44
2022/08/09 10:18:08;;;;;;;;;;;;;;;;;;4969827;28;19910;-43
2022/08/09 10:20:34;;;;;;;;;;;;;;;;;;4968806;28;19942;-44
2022/08/09 10:23:01;;;;;;;;;;;;;;;;;;4969006;28;19976;-42
2022/08/09 10:25:27;;;;;;;;;;;;;;;;;;4967755;28;19981;-42
2022/08/09 10:27:53;;;;;;;;;;;;;;;;;;4969429;28;20299;-42
2022/08/09 10:30:18;;;;;;;;;;;;;;;;;;4969047;28;19922;-42
2022/08/09 10:32:44;;;;;;;;;;;;;;;;;;4969938;28;19960;-43
2022/08/09 10:35:10;;;;;;;;;;;;;;;;;;4969084;28;19945;-42
2022/08/09 10:37:36;;;;;;;;;;;;;;;;;;4969493;28;20418;-43
2022/08/09 10:40:02;;;;;;;;;;;;;;;;;;4965797;28;20017;-41
2022/08/09 10:42:28;;;;;;;;;;;;;;;;;;4969370;28;20028;-42
2022/08/09 10:44:54;;;;;;;;;;;;;;;;;;4968921;28;19918;-42
2022/08/09 10:47:21;;;;;;;;;;;;;;;;;;4966862;28;19968;-43
2022/08/09 10:49:47;;;;;;;;;;;;;;;;;;4969371;28;19911;-42
2022/08/09 10:52:13;;;;;;;;;;;;;;;;;;4967520;28;19925;-43
2022/08/09 10:54:39;;;;;;;;;;;;;;;;;;4970086;28;19910;-43
2022/08/09 10:57:05;;;;;;;;;;;;;;;;;;4968654;28;19922;-43
2022/08/09 10:59:31;;;;;;;;;;;;;;;;;;4968509;28;19925;-42
2022/08/09 11:01:57;;;;;;;;;;;;;;;;;;4968325;28;19922;-43
2022/08/09 11:04:23;;;;;;;;;;;;;;;;;;4961520;28;20430;-43
2022/08/09 11:06:49;;;;;;;;;;;;;;;;;;4967600;28;20016;-44
2022/08/09 11:09:15;;;;;;;;;;;;;;;;;;4968543;28;20446;-43
2022/08/09 11:11:41;;;;;;;;;;;;;;;;;;4968620;28;19996;-44
2022/08/09 11:14:07;;;;;;;;;;;;;;;;;;4968113;28;19921;-43
2022/08/09 11:16:33;;;;;;;;;;;;;;;;;;4967569;28;20012;-43
2022/08/09 11:18:59;;;;;;;;;;;;;;;;;;4968501;28;19918;-43
2022/08/09 11:21:25;;;;;;;;;;;;;;;;;;4965744;28;19918;-42
2022/08/09 11:23:50;;;;;;;;;;;;;;;;;;4967015;28;19972;-43
2022/08/09 11:26:16;;;;;;;;;;;;;;;;;;4966654;28;19918;-42
2022/08/09 11:28:42;;;;;;;;;;;;;;;;;;4966245;28;19941;-45
2022/08/09 11:31:08;;;;;;;;;;;;;;;;;;4969018;28;19972;-43
2022/08/09 11:33:34;;;;;;;;;;;;;;;;;;4967792;28;20001;-43
2022/08/09 11:36:00;;;;;;;;;;;;;;;;;;4964383;28;19989;-42
2022/08/09 11:38:26;;;;;;;;;;;;;;;;;;4963955;28;19918;-42
2022/08/09 11:40:52;;;;;;;;;;;;;;;;;;4967463;28;19953;-43
2022/08/09 11:43:18;;;;;;;;;;;;;;;;;;4965909;28;19945;-44
2022/08/09 11:45:45;;;;;;;;;;;;;;;;;;4968752;28;19918;-42
2022/08/09 11:48:11;;;;;;;;;;;;;;;;;;4965753;28;20490;-43
2022/08/09 11:50:37;;;;;;;;;;;;;;;;;;4968190;28;19949;-42
2022/08/09 11:53:03;;;;;;;;;;;;;;;;;;4967837;28;20319;-42
2022/08/09 11:55:30;;;;;;;;;;;;;;;;;;4967614;28;20739;-43
2022/08/09 11:57:56;;;;;;;;;;;;;;;;;;4967347;28;19924;-42
2022/08/09 12:00:22;;;;;;;;;;;;;;;;;;4966983;28;20279;-42
2022/08/09 12:02:47;;;;;;;;;;;;;;;;;;4967187;28;19922;-42
2022/08/09 12:05:13;;;;;;;;;;;;;;;;;;4966752;28;20450;-42
2022/08/09 12:07:39;;;;;;;;;;;;;;;;;;4967885;28;19906;-43
2022/08/09 12:10:05;;;;;;;;;;;;;;;;;;4965456;28;19925;-43
2022/08/09 12:12:31;;;;;;;;;;;;;;;;;;4966543;28;19965;-42
2022/08/09 12:14:57;;;;;;;;;;;;;;;;;;4967798;28;19922;-44
2022/08/09 12:17:23;;;;;;;;;;;;;;;;;;4965040;28;19914;-45
2022/08/09 12:19:49;;;;;;;;;;;;;;;;;;4967720;28;19910;-42
2022/08/09 12:22:15;;;;;;;;;;;;;;;;;;4967994;28;19910;-43
2022/08/09 12:24:41;;;;;;;;;;;;;;;;;;4967379;28;19922;-42
2022/08/09 12:27:08;;;;;;;;;;;;;;;;;;4967414;28;19917;-42
2022/08/09 12:29:34;;;;;;;;;;;;;;;;;;4965050;28;19962;-43
2022/08/09 12:32:00;;;;;;;;;;;;;;;;;;4966714;28;20641;-42
2022/08/09 12:34:26;;;;;;;;;;;;;;;;;;4966896;28;19972;-43
2022/08/09 12:36:52;;;;;;;;;;;;;;;;;;4966852;28;19914;-43
2022/08/09 12:39:18;;;;;;;;;;;;;;;;;;4967254;28;19918;-43
2022/08/09 12:41:44;;;;;;;;;;;;;;;;;;4968071;28;20528;-44
2022/08/09 12:44:10;;;;;;;;;;;;;;;;;;4965475;28;19988;-42
2022/08/09 12:46:36;;;;;;;;;;;;;;;;;;4963931;28;19918;-43
2022/08/09 12:49:02;;;;;;;;;;;;;;;;;;4965796;28;20005;-43
2022/08/09 12:51:28;;;;;;;;;;;;;;;;;;4963955;28;20012;-44
2022/08/09 12:53:54;;;;;;;;;;;;;;;;;;4965519;28;19937;-43
2022/08/09 12:56:21;;;;;;;;;;;;;;;;;;4967008;28;19910;-43
2022/08/09 12:58:47;;;;;;;;;;;;;;;;;;4963129;28;19969;-44
2022/08/09 13:01:13;;;;;;;;;;;;;;;;;;4967413;28;20005;-42
2022/08/09 13:03:39;;;;;;;;;;;;;;;;;;4968308;28;19968;-42
2022/08/09 13:06:05;;;;;;;;;;;;;;;;;;4966357;28;20016;-39
2022/08/09 13:08:33;;;;;;;;;;;;;;;;;;4966651;28;20347;-41
2022/08/09 13:10:59;;;;;;;;;;;;;;;;;;4966699;28;19918;-41
2022/08/09 13:13:26;;;;;;;;;;;;;;;;;;4965147;28;20016;-41
2022/08/09 13:15:52;;;;;;;;;;;;;;;;;;4959901;28;19925;-41
2022/08/09 13:18:18;;;;;;;;;;;;;;;;;;4964221;28;19918;-40
2022/08/09 13:20:45;;;;;;;;;;;;;;;;;;4966052;28;19941;-41
2022/08/09 13:23:11;;;;;;;;;;;;;;;;;;4969886;28;19957;-40
2022/08/09 13:25:37;;;;;;;;;;;;;;;;;;4967840;28;19942;-41
2022/08/09 13:28:03;;;;;;;;;;;;;;;;;;4975021;28;19917;-40
2022/08/09 13:30:28;;;;;;;;;;;;;;;;;;4990944;28;19965;-42
2022/08/09 13:32:54;;;;;;;;;;;;;;;;;;4973710;28;20012;-42
2022/08/09 13:35:20;;;;;;;;;;;;;;;;;;4959085;28;19918;-42
2022/08/09 13:37:46;;;;;;;;;;;;;;;;;;4969213;28;19968;-42
2022/08/09 13:40:12;;;;;;;;;;;;;;;;;;4969539;28;19918;-43
2022/08/09 13:42:38;;;;;;;;;;;;;;;;;;4970826;28;19913;-41
2022/08/09 13:45:04;;;;;;;;;;;;;;;;;;4971223;28;19914;-41
2022/08/09 13:47:31;;;;;;;;;;;;;;;;;;4969089;28;19918;-43
2022/08/09 13:49:57;;;;;;;;;;;;;;;;;;4970704;28;20323;-42
2022/08/09 13:52:23;;;;;;;;;;;;;;;;;;4970005;28;19914;-41
2022/08/09 13:54:49;;;;;;;;;;;;;;;;;;4971094;28;19910;-43
2022/08/09 13:57:15;;;;;;;;;;;;;;;;;;4969726;28;19968;-42
2022/08/09 13:59:41;;;;;;;;;;;;;;;;;;4971151;28;19968;-40
2022/08/09 14:02:07;;;;;;;;;;;;;;;;;;4966364;28;19929;-42
2022/08/09 14:04:33;;;;;;;;;;;;;;;;;;4970190;28;19946;-42
2022/08/09 14:06:59;;;;;;;;;;;;;;;;;;4966173;28;19925;-42
2022/08/09 14:09:25;;;;;;;;;;;;;;;;;;4969589;28;20006;-40
2022/08/09 14:11:51;;;;;;;;;;;;;;;;;;4970182;28;19957;-45
2022/08/09 14:14:17;;;;;;;;;;;;;;;;;;4969943;28;19920;-43
2022/08/09 14:16:43;;;;;;;;;;;;;;;;;;4965943;28;19933;-41
2022/08/09 14:19:09;;;;;;;;;;;;;;;;;;4968975;28;19925;-42
2022/08/09 14:21:35;;;;;;;;;;;;;;;;;;4969968;28;19921;-44
2022/08/09 14:24:01;;;;;;;;;;;;;;;;;;4970326;28;20618;-43
2022/08/09 14:26:27;;;;;;;;;;;;;;;;;;4969392;28;20406;-43
2022/08/09 14:28:53;;;;;;;;;;;;;;;;;;4965584;28;19914;-43
2022/08/09 14:31:19;;;;;;;;;;;;;;;;;;4968418;28;19918;-43
2022/08/09 14:33:45;;;;;;;;;;;;;;;;;;4980401;28;19917;-43
2022/08/09 14:36:11;;;;;;;;;;;;;;;;;;4989597;28;19913;-42
2022/08/09 14:38:36;;;;;;;;;;;;;;;;;;4974789;28;19918;-43
2022/08/09 14:41:04;;;;;;;;;;;;;;;;;;4969066;28;20288;-41
2022/08/09 14:43:30;;;;;;;;;;;;;;;;;;4972179;28;19918;-42
2022/08/09 14:45:56;;;;;;;;;;;;;;;;;;4973192;28;19913;-42
2022/08/09 14:48:22;;;;;;;;;;;;;;;;;;4975382;28;20018;-45
2022/08/09 14:50:48;;;;;;;;;;;;;;;;;;4969299;28;19997;-46
2022/08/09 14:53:14;;;;;;;;;;;;;;;;;;4967427;28;19918;-43
2022/08/09 14:55:39;;;;;;;;;;;;;;;;;;4970017;28;19948;-44
2022/08/09 14:58:05;;;;;;;;;;;;;;;;;;4968850;28;19910;-43
2022/08/09 15:00:31;;;;;;;;;;;;;;;;;;4966398;28;19969;-45
2022/08/09 15:02:57;;;;;;;;;;;;;;;;;;4951254;29;19982;-43
2022/08/09 15:05:23;;;;;;;;;;;;;;;;;;4950319;29;19950;-45
2022/08/09 15:07:49;;;;;;;;;;;;;;;;;;4962321;28;19914;-43
2022/08/09 15:10:15;;;;;;;;;;;;;;;;;;4968872;28;19985;-42
2022/08/09 15:12:41;;;;;;;;;;;;;;;;;;4969813;28;19914;-42
2022/08/09 15:15:07;;;;;;;;;;;;;;;;;;4968445;28;19927;-42
2022/08/09 15:17:33;;;;;;;;;;;;;;;;;;4973280;28;19918;-43
2022/08/09 15:19:59;;;;;;;;;;;;;;;;;;4969044;28;20392;-43
2022/08/09 15:22:25;;;;;;;;;;;;;;;;;;4969117;28;19910;-42
2022/08/09 15:24:51;;;;;;;;;;;;;;;;;;4969166;28;20407;-46
2022/08/09 15:27:17;;;;;;;;;;;;;;;;;;4974345;28;19977;-42
2022/08/09 15:29:43;;;;;;;;;;;;;;;;;;4968335;28;19918;-42
2022/08/09 15:32:09;;;;;;;;;;;;;;;;;;4967505;28;19969;-43
2022/08/09 15:34:35;;;;;;;;;;;;;;;;;;4967231;28;19914;-45
2022/08/09 15:37:00;;;;;;;;;;;;;;;;;;4965846;28;19918;-43
2022/08/09 15:39:26;;;;;;;;;;;;;;;;;;4967824;28;20478;-42
2022/08/09 15:41:52;;;;;;;;;;;;;;;;;;4966131;28;19961;-44
2022/08/09 15:44:18;;;;;;;;;;;;;;;;;;4965949;28;20016;-45
2022/08/09 15:46:46;;;;;;;;;;;;;;;;;;4967663;28;19910;-42
2022/08/09 15:49:12;;;;;;;;;;;;;;;;;;4967963;28;19968;-42
2022/08/09 15:51:38;;;;;;;;;;;;;;;;;;4968001;28;19915;-41
2022/08/09 15:54:04;;;;;;;;;;;;;;;;;;4967666;28;19976;-43
2022/08/09 15:56:30;;;;;;;;;;;;;;;;;;4967612;28;19918;-43
2022/08/09 15:58:56;;;;;;;;;;;;;;;;;;4966375;28;19921;-42
2022/08/09 16:01:22;;;;;;;;;;;;;;;;;;4967431;28;19922;-43
2022/08/09 16:03:48;;;;;;;;;;;;;;;;;;4968004;28;20404;-41
2022/08/09 16:06:14;;;;;;;;;;;;;;;;;;4967642;28;19937;-41
2022/08/09 16:08:40;;;;;;;;;;;;;;;;;;4966608;28;19914;-43
2022/08/09 16:11:07;;;;;;;;;;;;;;;;;;4966854;28;19921;-45
2022/08/09 16:13:33;;;;;;;;;;;;;;;;;;4966676;28;19917;-42
2022/08/09 16:15:59;;;;;;;;;;;;;;;;;;4967847;28;19918;-43
2022/08/09 16:18:25;;;;;;;;;;;;;;;;;;4967391;28;19910;-44
2022/08/09 16:20:51;;;;;;;;;;;;;;;;;;4967646;28;19917;-44
2022/08/09 16:23:17;;;;;;;;;;;;;;;;;;4965342;28;19929;-41
2022/08/09 16:25:43;;;;;;;;;;;;;;;;;;4967451;28;19922;-44
2022/08/09 16:28:10;;;;;;;;;;;;;;;;;;4966652;28;19957;-42
2022/08/09 16:30:35;;;;;;;;;;;;;;;;;;4953483;28;19969;-46
2022/08/09 16:33:07;;;;;;;;;;;;;;;;;;4962679;28;19918;-42
2022/08/09 16:35:33;;;;;;;;;;;;;;;;;;4966019;28;19914;-43
2022/08/09 16:37:59;;;;;;;;;;;;;;;;;;4967372;28;19940;-43